Millersville, Maryland
Current Conditions -  °F | °C
As of 7:33 AM on Saturday 20 Dec 2014 (Local Time) from KFME Reporting Station
Clear Clear  
Wind Chill: 21°   Ceiling: Unl
Heat Index: 21°   Visibility: 10mi
Dew Point: 19°   Wind: 0mph
Humidity: 93%   Direction: NA
Pressure: 30.32"   Gusts: NA
Location:  39.06°N, 76.65°W
Report Text: KFME 201233Z AUTO 00000KT 10SM CLR M06/M07 A3032 RMK AO1
Loading
Personal Weather Stations






























Interactive Weather Map New forecast layout! Learn more

10-Day Weather Forecast

Advertisements
Track Severe Weather on mobile